Latest Coastal Weather Observations for Wyndham Airport

IDD60701

Issued at 3:41 pm CST Friday 28 April 2017 (issued every 10 minutes, with the page automatically refreshed every 10 minutes)

About coastal observations | Map of coastal stations | Coastal observations for NT | Marine services | Other Formats
Station Details ID: 001006 Name: WYNDHAM AERO Lat: -15.51 Lon: 128.15 Height: 3.8 m
Data from the previous 72 hours. | See also: Recent months at Wyndham Airport
Date/Time
CST
Temp
°C
Wind Pressure Rain since
9am
mm
Weather Cloud Vis
km
Sea
Height
m
Swell
Dir  Spd
kts
Gust
kts
hPa Trend Height
m
Period
s
Dir
28/03:30pm 30.4 SE 9 14 1012.3 - 0.0 - - - - - - -
28/03:00pm 30.5 SE 10 16 1012.4 - 0.0 - - - - - - -
28/02:30pm 30.1 SE 12 16 1012.6 - 0.0 - - - - - - -
28/02:00pm 30.5 SE 11 16 1013.0 - 0.0 - - - - - - -
28/01:30pm 29.9 ESE 12 18 1013.5 - 0.0 - - - - - - -
28/01:00pm 29.1 ESE 12 16 1013.9 - 0.0 - - - - - - -
28/12:30pm 28.6 ESE 14 19 1014.6 - 0.0 - - - - - - -
28/12:00pm 27.8 ESE 14 19 1015.6 - 0.0 - - - - - - -
28/11:30am 26.8 ESE 15 20 1015.7 - 0.0 - - - - - - -
28/11:00am 26.8 ESE 15 20 1015.7 - 0.0 - - - - - - -
28/10:30am 27.5 ESE 13 18 1015.8 - 0.0 - - - - - - -
28/10:00am 26.6 ESE 15 21 1015.7 - 0.0 - - - - - - -
28/09:30am 26.6 ESE 13 18 1015.5 - 0.0 - - - - - - -
28/09:00am 26.3 ESE 10 13 1015.2 - 0.0 - - - - - - -
28/08:30am 26.5 ESE 11 14 1014.9 - 0.0 - - - - - - -
28/08:00am 25.7 ESE 9 12 1014.5 - 0.0 - - - - - - -
28/07:30am 25.9 ESE 7 9 1014.1 - 0.0 - - - - - - -
28/07:00am 26.0 ESE 9 12 1013.6 - 0.0 - - - - - - -
28/06:30am 25.5 ESE 8 10 1013.1 - 0.0 - - - - - - -
28/06:00am 24.7 ESE 8 11 1012.7 - 0.0 - - - - - - -
28/05:30am 24.0 ESE 7 9 1012.6 - 0.0 - - - - - - -
28/05:00am 23.6 SE 5 6 1012.5 - 0.0 - - - - - - -
28/04:30am 25.4 ESE 7 10 1012.4 - 0.0 - - - - - - -
28/04:00am 25.1 ESE 8 9 1012.4 - 0.0 - - - - - - -
28/03:30am 24.4 SE 5 7 1012.3 - 0.0 - - - - - - -
28/03:00am 26.2 ESE 8 10 1012.4 - 0.0 - - - - - - -
28/02:30am 27.1 ESE 9 11 1012.4 - 0.0 - - - - - - -
28/02:00am 26.9 ESE 8 11 1012.4 - 0.0 - - - - - - -
28/01:30am 26.8 ESE 9 13 1012.5 - 0.0 - - - - - - -
28/01:00am 27.2 ESE 10 12 1012.5 - 0.0 - - - - - - -
28/12:30am 27.0 ESE 9 11 1012.6 - 0.0 - - - - - - -
28/12:00am 26.8 ESE 9 11 1012.6 - 0.0 - - - - - - -
 
Date/Time
CST
Temp
°C
Wind Pressure Rain since
9am
mm
Weather Cloud Vis
km
Sea
Height
m
Swell
Dir  Spd
kts
Gust
kts
hPa Trend Height
m
Period
s
Dir
27/11:30pm 26.8 ESE 8 9 1012.7 - 0.0 - - - - - - -
27/11:00pm 25.3 SE 6 7 1012.8 - 0.0 - - - - - - -
27/10:30pm 25.2 ESE 5 6 1013.0 - 0.0 - - - - - - -
27/10:00pm 25.6 ESE 5 6 1013.2 - 0.0 - - - - - - -
27/09:30pm 26.0 ESE 5 6 1013.1 - 0.0 - - - - - - -
27/09:00pm 26.1 SE 3 4 1012.8 - 0.0 - - - - - - -
27/08:30pm 26.8 ESE 5 5 1012.4 - 0.0 - - - - - - -
27/08:00pm 27.3 SE 5 6 1012.0 - 0.0 - - - - - - -
27/07:30pm 28.8 E 6 7 1011.5 - 0.0 - - - - - - -
27/07:00pm 29.2 ESE 6 7 1011.2 - 0.0 - - - - - - -
27/06:30pm 30.5 ESE 8 10 1010.7 - 0.0 - - - - - - -
27/06:00pm 31.7 SE 10 15 1010.2 - 0.0 - - - - - - -
27/05:30pm 32.6 ESE 10 14 1010.0 - 0.0 - - - - - - -
27/05:00pm 33.3 E 10 14 1010.0 - 0.0 - - - - - - -
27/04:30pm 33.4 ESE 11 16 1010.0 - 0.0 - - - - - - -
27/04:00pm 33.7 E 13 17 1010.3 - 0.0 - - - - - - -
27/03:30pm 33.6 ESE 13 16 1010.4 - 0.0 - - - - - - -
27/03:00pm 34.7 ESE 13 17 1010.7 - 0.0 - - - - - - -
27/02:30pm 34.2 ESE 13 20 1011.1 - 0.0 - - - - - - -
27/02:00pm 33.3 ESE 12 19 1011.5 - 0.0 - - - - - - -
27/01:30pm 33.9 ESE 14 21 1011.8 - 0.0 - - - - - - -
27/01:00pm 33.4 SE 12 17 1012.4 - 0.0 - - - - - - -
27/12:30pm 33.6 ESE 13 18 1012.9 - 0.0 - - - - - - -
27/12:00pm 32.9 ESE 14 19 1013.2 - 0.0 - - - - - - -
27/11:30am 32.4 ESE 17 24 1013.4 - 0.0 - - - - - - -
27/11:00am 32.4 ESE 17 22 1013.8 - 0.0 - - - - - - -
27/10:30am 31.7 ESE 17 23 1014.0 - 0.0 - - - - - - -
27/10:00am 31.4 ESE 17 25 1013.8 - 0.0 - - - - - - -
27/09:31am 30.8 ESE 17 27 1013.3 - 0.0 - - - - - - -
27/09:30am 30.8 ESE 17 23 1013.3 - 0.0 - - - - - - -
27/09:00am 30.1 ESE 17 25 1013.1 - 0.0 - - - - - - -
27/08:30am 29.7 ESE 15 21 1013.0 - 0.0 - - - - - - -
27/08:00am 29.2 E 13 16 1012.5 - 0.0 - - - - - - -
27/07:30am 29.0 E 14 19 1011.8 - 0.0 - - - - - - -
27/07:00am 28.0 E 11 13 1011.5 - 0.0 - - - - - - -
27/06:30am 27.8 E 10 11 1011.0 - 0.0 - - - - - - -
27/06:00am 28.5 E 10 11 1010.6 - 0.0 - - - - - - -
27/05:30am 28.8 ESE 9 12 1010.5 - 0.0 - - - - - - -
27/05:00am 28.6 E 8 9 1010.5 - 0.0 - - - - - - -
27/04:30am 28.8 E 8 9 1010.3 - 0.0 - - - - - - -
27/04:00am 28.1 E 7 8 1010.1 - 0.0 - - - - - - -
27/03:30am 27.4 E 5 6 1010.0 - 0.0 - - - - - - -
27/03:00am 26.7 ENE 5 6 1010.1 - 0.0 - - - - - - -
27/02:30am 27.1 ENE 1 4 1010.2 - 0.0 - - - - - - -
27/02:00am 26.8 CALM 0 0 1010.3 - 0.0 - - - - - - -
27/01:30am 26.0 CALM 0 0 1010.5 - 0.0 - - - - - - -
27/01:00am 26.9 CALM 0 0 1010.6 - 0.0 - - - - - - -
27/12:30am 27.2 CALM 0 0 1010.7 - 0.0 - - - - - - -
27/12:00am 27.4 CALM 0 0 1011.0 - 0.0 - - - - - - -
 
Date/Time
CST
Temp
°C
Wind Pressure Rain since
9am
mm
Weather Cloud Vis
km
Sea
Height
m
Swell
Dir  Spd
kts
Gust
kts
hPa Trend Height
m
Period
s
Dir
26/11:30pm 28.2 W 1 4 1011.2 - 0.0 - - - - - - -
26/11:00pm 28.1 CALM 0 0 1011.3 - 0.0 - - - - - - -
26/10:30pm 28.9 CALM 0 0 1011.3 - 0.0 - - - - - - -
26/10:00pm 29.6 CALM 0 0 1011.4 - 0.0 - - - - - - -
26/09:30pm 29.5 SE 3 4 1011.3 - 0.0 - - - - - - -
26/09:00pm 30.1 SE 4 5 1010.8 - 0.0 - - - - - - -
26/08:30pm 30.7 ESE 4 4 1010.5 - 0.0 - - - - - - -
26/08:00pm 30.5 ESE 5 6 1009.9 - 0.0 - - - - - - -
26/07:30pm 31.9 E 6 7 1009.4 - 0.0 - - - - - - -
26/07:00pm 32.6 ESE 5 6 1009.0 - 0.0 - - - - - - -
26/06:30pm 34.0 SE 7 9 1008.7 - 0.0 - - - - - - -
26/06:00pm 36.1 E 9 14 1008.3 - 0.0 - - - - - - -
26/05:30pm 36.9 E 9 14 1008.1 - 0.0 - - - - - - -
26/05:00pm 36.7 ENE 12 16 1007.8 - 0.0 - - - - - - -
26/04:30pm 37.2 E 13 18 1007.5 - 0.0 - - - - - - -
26/04:00pm 38.0 E 11 15 1007.7 - 0.0 - - - - - - -
26/03:30pm 37.8 E 12 18 1007.9 - 0.0 - - - - - - -
26/03:00pm 37.1 E 10 16 1008.2 - 0.0 - - - - - - -
26/02:30pm 38.2 E 11 17 1008.6 - 0.0 - - - - - - -
26/02:00pm 37.5 E 11 17 1009.0 - 0.0 - - - - - - -
26/01:30pm 36.8 E 9 15 1009.4 - 0.0 - - - - - - -
26/01:00pm 37.5 ESE 10 16 1009.9 - 0.0 - - - - - - -
26/12:30pm 37.2 ESE 11 15 1010.2 - 0.0 - - - - - - -
26/12:00pm 36.6 ENE 9 14 1010.6 - 0.0 - - - - - - -
26/11:30am 35.1 ESE 7 9 1011.2 - 0.0 - - - - - - -
26/11:00am 33.3 ESE 4 6 1011.6 - 0.0 - - - - - - -
26/10:30am 32.8 SE 2 5 1012.1 - 0.0 - - - - - - -
26/10:00am 30.5 SSW 5 7 1012.1 - 0.0 - - - - - - -
26/09:30am 28.9 SW 3 5 1012.0 - 0.0 - - - - - - -
26/09:00am 27.0 SW 4 6 1012.1 - 0.0 - - - - - - -
26/08:30am 25.7 SW 4 5 1011.7 - 0.0 - - - - - - -
26/08:00am 24.0 CALM 0 0 1011.2 - 0.0 - - - - - - -
26/07:30am 23.1 N 3 5 1010.7 - 0.0 - - - - - - -
26/07:00am 23.1 WSW 4 6 1010.4 - 0.0 - - - - - - -
26/06:30am 23.0 WNW 4 5 1010.0 - 0.0 - - - - - - -
26/06:00am 23.1 NW 6 6 1010.1 - 0.0 - - - - - - -
26/05:30am 23.0 NW 3 3 1010.2 - 0.0 - - - - - - -
26/05:00am 23.7 WNW 3 3 1010.1 - 0.0 - - - - - - -
26/04:30am 24.1 W 3 4 1010.1 - 0.0 - - - - - - -
26/04:00am 24.7 CALM 0 0 1010.2 - 0.0 - - - - - - -
26/03:30am 24.5 CALM 0 2 1010.2 - 0.0 - - - - - - -
26/03:00am 25.1 NW 5 6 1010.3 - 0.0 - - - - - - -
26/02:30am 25.3 WNW 2 4 1010.7 - 0.0 - - - - - - -
26/02:00am 25.1 NW 4 4 1010.7 - 0.0 - - - - - - -
26/01:30am 25.7 CALM 0 0 1010.9 - 0.0 - - - - - - -
26/01:00am 26.1 WSW 6 7 1011.1 - 0.0 - - - - - - -
26/12:30am 25.9 N 2 4 1011.3 - 0.0 - - - - - - -
26/12:00am 26.4 NNW 4 5 1011.4 - 0.0 - - - - - - -
 
Date/Time
CST
Temp
°C
Wind Pressure Rain since
9am
mm
Weather Cloud Vis
km
Sea
Height
m
Swell
Dir  Spd
kts
Gust
kts
hPa Trend Height
m
Period
s
Dir
25/11:30pm 27.0 NNW 3 5 1011.5 - 0.0 - - - - - - -
25/11:00pm 27.5 SSW 6 7 1011.6 - 0.0 - - - - - - -
25/10:30pm 27.2 NE 3 4 1011.5 - 0.0 - - - - - - -
25/10:00pm 27.0 E 4 4 1011.7 - 0.0 - - - - - - -
25/09:30pm 27.4 E 4 4 1011.6 - 0.0 - - - - - - -
25/09:00pm 27.9 E 3 4 1011.3 - 0.0 - - - - - - -
25/08:30pm 29.2 ENE 2 3 1010.9 - 0.0 - - - - - - -
25/08:00pm 29.7 E 3 4 1010.4 - 0.0 - - - - - - -
25/07:30pm 30.5 CALM 0 0 1010.0 - 0.0 - - - - - - -
25/07:00pm 32.5 CALM 0 1 1009.6 - 0.0 - - - - - - -
25/06:30pm 33.6 ENE 3 4 1009.2 - 0.0 - - - - - - -
25/06:00pm 34.6 ENE 3 5 1008.9 - 0.0 - - - - - - -
25/05:30pm 35.0 ENE 5 7 1008.7 - 0.0 - - - - - - -

Other Formats:

Comma delimited format used in spreadsheet applications
http://www.bom.gov.au/fwo/IDD60701/IDD60701.95214.axf

JavaScript Object Notation format (JSON) in row-major order
http://www.bom.gov.au/fwo/IDD60701/IDD60701.95214.json